sensor_id;sensor_type;location;lat;lon;timestamp;temperature;humidity
3275;DHT22;1649;53.672;10.064;2023-06-14T00:01:39;15.50;99.90
3275;DHT22;1649;53.672;10.064;2023-06-14T00:04:04;15.50;99.90
3275;DHT22;1649;53.672;10.064;2023-06-14T00:06:31;15.50;99.90
3275;DHT22;1649;53.672;10.064;2023-06-14T00:08:56;15.50;99.90
3275;DHT22;1649;53.672;10.064;2023-06-14T00:11:22;15.30;99.90
3275;DHT22;1649;53.672;10.064;2023-06-14T00:13:47;15.30;99.90
3275;DHT22;1649;53.672;10.064;2023-06-14T00:16:13;15.30;99.90
3275;DHT22;1649;53.672;10.064;2023-06-14T00:18:38;15.30;99.90
3275;DHT22;1649;53.672;10.064;2023-06-14T00:21:05;15.20;99.90
3275;DHT22;1649;53.672;10.064;2023-06-14T00:23:30;15.20;99.90
3275;DHT22;1649;53.672;10.064;2023-06-14T00:25:56;15.20;99.90
3275;DHT22;1649;53.672;10.064;2023-06-14T00:28:22;15.20;99.90
3275;DHT22;1649;53.672;10.064;2023-06-14T00:30:47;15.20;99.90
3275;DHT22;1649;53.672;10.064;2023-06-14T00:33:13;15.20;99.90
3275;DHT22;1649;53.672;10.064;2023-06-14T00:35:39;15.10;99.90
3275;DHT22;1649;53.672;10.064;2023-06-14T00:38:04;15.00;99.90
3275;DHT22;1649;53.672;10.064;2023-06-14T00:40:30;15.10;99.90
3275;DHT22;1649;53.672;10.064;2023-06-14T00:42:55;14.90;99.90
3275;DHT22;1649;53.672;10.064;2023-06-14T00:45:21;14.90;99.90
3275;DHT22;1649;53.672;10.064;2023-06-14T00:47:48;15.00;99.90
3275;DHT22;1649;53.672;10.064;2023-06-14T00:50:16;15.00;99.90
3275;DHT22;1649;53.672;10.064;2023-06-14T00:52:42;15.00;99.90
3275;DHT22;1649;53.672;10.064;2023-06-14T00:55:08;15.00;99.90
3275;DHT22;1649;53.672;10.064;2023-06-14T00:57:33;14.90;99.90
3275;DHT22;1649;53.672;10.064;2023-06-14T01:00:03;14.90;99.90
3275;DHT22;1649;53.672;10.064;2023-06-14T01:02:30;14.90;99.90
3275;DHT22;1649;53.672;10.064;2023-06-14T01:04:55;14.90;99.90
3275;DHT22;1649;53.672;10.064;2023-06-14T01:07:39;14.90;99.90
3275;DHT22;1649;53.672;10.064;2023-06-14T01:10:20;14.80;99.90
3275;DHT22;1649;53.672;10.064;2023-06-14T01:13:05;14.90;99.90
3275;DHT22;1649;53.672;10.064;2023-06-14T01:15:33;14.80;99.90
3275;DHT22;1649;53.672;10.064;2023-06-14T01:17:59;14.80;99.90
3275;DHT22;1649;53.672;10.064;2023-06-14T01:20:29;14.60;99.90
3275;DHT22;1649;53.672;10.064;2023-06-14T01:22:56;14.60;99.90
3275;DHT22;1649;53.672;10.064;2023-06-14T01:25:22;14.60;99.90
3275;DHT22;1649;53.672;10.064;2023-06-14T01:27:53;14.70;99.90
3275;DHT22;1649;53.672;10.064;2023-06-14T01:30:21;14.70;99.90
3275;DHT22;1649;53.672;10.064;2023-06-14T01:32:48;14.60;99.90
3275;DHT22;1649;53.672;10.064;2023-06-14T01:35:16;14.60;99.90
3275;DHT22;1649;53.672;10.064;2023-06-14T01:37:42;14.60;99.90
3275;DHT22;1649;53.672;10.064;2023-06-14T01:40:09;14.60;99.90
3275;DHT22;1649;53.672;10.064;2023-06-14T01:42:37;14.60;99.90
3275;DHT22;1649;53.672;10.064;2023-06-14T01:45:05;14.50;99.90
3275;DHT22;1649;53.672;10.064;2023-06-14T01:47:32;14.50;99.90
3275;DHT22;1649;53.672;10.064;2023-06-14T01:49:58;14.50;99.90
3275;DHT22;1649;53.672;10.064;2023-06-14T01:52:24;14.50;99.90
3275;DHT22;1649;53.672;10.064;2023-06-14T01:54:50;14.60;99.90
3275;DHT22;1649;53.672;10.064;2023-06-14T01:57:16;14.60;99.90
3275;DHT22;1649;53.672;10.064;2023-06-14T01:59:41;14.60;99.90
3275;DHT22;1649;53.672;10.064;2023-06-14T02:02:07;14.60;99.90
3275;DHT22;1649;53.672;10.064;2023-06-14T02:04:33;14.50;99.90
3275;DHT22;1649;53.672;10.064;2023-06-14T02:06:58;14.40;99.90
3275;DHT22;1649;53.672;10.064;2023-06-14T02:09:24;14.40;99.90
3275;DHT22;1649;53.672;10.064;2023-06-14T02:11:49;14.40;99.90
3275;DHT22;1649;53.672;10.064;2023-06-14T02:14:15;14.30;99.90
3275;DHT22;1649;53.672;10.064;2023-06-14T02:16:42;14.20;99.90
3275;DHT22;1649;53.672;10.064;2023-06-14T02:19:16;14.00;99.90
3275;DHT22;1649;53.672;10.064;2023-06-14T02:21:43;14.10;99.90
3275;DHT22;1649;53.672;10.064;2023-06-14T02:24:08;14.10;99.90
3275;DHT22;1649;53.672;10.064;2023-06-14T02:26:35;14.20;99.90
3275;DHT22;1649;53.672;10.064;2023-06-14T02:29:00;14.20;99.90
3275;DHT22;1649;53.672;10.064;2023-06-14T02:31:26;14.20;99.90
3275;DHT22;1649;53.672;10.064;2023-06-14T02:33:52;14.20;99.90
3275;DHT22;1649;53.672;10.064;2023-06-14T02:36:18;14.20;99.90
3275;DHT22;1649;53.672;10.064;2023-06-14T02:38:43;14.20;99.90
3275;DHT22;1649;53.672;10.064;2023-06-14T02:41:09;14.20;99.90
3275;DHT22;1649;53.672;10.064;2023-06-14T02:43:34;14.20;99.90
3275;DHT22;1649;53.672;10.064;2023-06-14T02:46:00;14.20;99.90
3275;DHT22;1649;53.672;10.064;2023-06-14T02:48:27;14.10;99.90
3275;DHT22;1649;53.672;10.064;2023-06-14T02:50:52;14.10;99.90
3275;DHT22;1649;53.672;10.064;2023-06-14T02:53:18;14.20;99.90
3275;DHT22;1649;53.672;10.064;2023-06-14T02:55:43;14.10;99.90
3275;DHT22;1649;53.672;10.064;2023-06-14T02:58:09;14.10;99.90
3275;DHT22;1649;53.672;10.064;2023-06-14T03:00:35;14.10;99.90
3275;DHT22;1649;53.672;10.064;2023-06-14T03:03:01;14.10;99.90
3275;DHT22;1649;53.672;10.064;2023-06-14T03:05:27;14.10;99.90
3275;DHT22;1649;53.672;10.064;2023-06-14T03:07:53;14.10;99.90
3275;DHT22;1649;53.672;10.064;2023-06-14T03:10:19;14.10;99.90
3275;DHT22;1649;53.672;10.064;2023-06-14T03:12:44;14.00;99.90
3275;DHT22;1649;53.672;10.064;2023-06-14T03:15:10;14.00;99.90
3275;DHT22;1649;53.672;10.064;2023-06-14T03:17:38;14.00;99.90
3275;DHT22;1649;53.672;10.064;2023-06-14T03:20:04;14.00;99.90
3275;DHT22;1649;53.672;10.064;2023-06-14T03:22:30;13.90;99.90
3275;DHT22;1649;53.672;10.064;2023-06-14T03:24:58;14.00;99.90
3275;DHT22;1649;53.672;10.064;2023-06-14T03:27:24;14.00;99.90
3275;DHT22;1649;53.672;10.064;2023-06-14T03:29:51;13.90;99.90
3275;DHT22;1649;53.672;10.064;2023-06-14T03:32:16;13.90;99.90
3275;DHT22;1649;53.672;10.064;2023-06-14T03:34:42;14.00;99.90
3275;DHT22;1649;53.672;10.064;2023-06-14T03:37:08;14.00;99.90
3275;DHT22;1649;53.672;10.064;2023-06-14T03:39:33;13.90;99.90
3275;DHT22;1649;53.672;10.064;2023-06-14T03:41:59;13.90;99.90
3275;DHT22;1649;53.672;10.064;2023-06-14T03:44:26;13.90;99.90
3275;DHT22;1649;53.672;10.064;2023-06-14T03:46:52;13.90;99.90
3275;DHT22;1649;53.672;10.064;2023-06-14T03:49:18;13.90;99.90
3275;DHT22;1649;53.672;10.064;2023-06-14T03:51:44;13.90;99.90
3275;DHT22;1649;53.672;10.064;2023-06-14T03:54:10;13.80;99.90
3275;DHT22;1649;53.672;10.064;2023-06-14T03:56:35;13.90;99.90
3275;DHT22;1649;53.672;10.064;2023-06-14T03:59:01;14.00;99.90
3275;DHT22;1649;53.672;10.064;2023-06-14T04:01:27;14.00;99.90
3275;DHT22;1649;53.672;10.064;2023-06-14T04:03:56;14.00;99.90
3275;DHT22;1649;53.672;10.064;2023-06-14T04:06:22;14.10;99.90
3275;DHT22;1649;53.672;10.064;2023-06-14T04:08:50;14.10;99.90
3275;DHT22;1649;53.672;10.064;2023-06-14T04:11:16;14.10;99.90
3275;DHT22;1649;53.672;10.064;2023-06-14T04:13:41;14.10;99.90
3275;DHT22;1649;53.672;10.064;2023-06-14T04:16:07;14.00;99.90
3275;DHT22;1649;53.672;10.064;2023-06-14T04:18:32;14.10;99.90
3275;DHT22;1649;53.672;10.064;2023-06-14T04:20:58;14.10;99.90
3275;DHT22;1649;53.672;10.064;2023-06-14T04:23:24;14.10;99.90
3275;DHT22;1649;53.672;10.064;2023-06-14T04:25:50;14.10;99.90
3275;DHT22;1649;53.672;10.064;2023-06-14T04:28:15;14.10;99.90
3275;DHT22;1649;53.672;10.064;2023-06-14T04:30:43;14.20;99.90
3275;DHT22;1649;53.672;10.064;2023-06-14T04:33:08;14.20;99.90
3275;DHT22;1649;53.672;10.064;2023-06-14T04:35:36;14.30;99.90
3275;DHT22;1649;53.672;10.064;2023-06-14T04:38:02;14.40;99.90
3275;DHT22;1649;53.672;10.064;2023-06-14T04:40:30;14.50;99.90
3275;DHT22;1649;53.672;10.064;2023-06-14T04:42:56;14.60;99.90
3275;DHT22;1649;53.672;10.064;2023-06-14T04:45:23;14.60;99.90
3275;DHT22;1649;53.672;10.064;2023-06-14T04:47:49;14.70;99.90
3275;DHT22;1649;53.672;10.064;2023-06-14T04:50:16;14.70;99.90
3275;DHT22;1649;53.672;10.064;2023-06-14T04:52:42;14.70;99.90
3275;DHT22;1649;53.672;10.064;2023-06-14T04:55:08;14.70;99.90
3275;DHT22;1649;53.672;10.064;2023-06-14T04:57:33;14.80;99.90
3275;DHT22;1649;53.672;10.064;2023-06-14T05:00:00;14.80;99.90
3275;DHT22;1649;53.672;10.064;2023-06-14T05:02:26;14.90;99.90
3275;DHT22;1649;53.672;10.064;2023-06-14T05:04:53;14.90;99.90
3275;DHT22;1649;53.672;10.064;2023-06-14T05:07:18;15.00;99.90
3275;DHT22;1649;53.672;10.064;2023-06-14T05:09:44;15.10;99.90
3275;DHT22;1649;53.672;10.064;2023-06-14T05:12:10;15.20;99.90
3275;DHT22;1649;53.672;10.064;2023-06-14T05:14:36;15.10;99.90
3275;DHT22;1649;53.672;10.064;2023-06-14T05:17:02;15.20;99.90
3275;DHT22;1649;53.672;10.064;2023-06-14T05:19:28;15.30;99.90
3275;DHT22;1649;53.672;10.064;2023-06-14T05:21:53;15.40;99.90
3275;DHT22;1649;53.672;10.064;2023-06-14T05:24:19;15.40;99.90
3275;DHT22;1649;53.672;10.064;2023-06-14T05:26:45;15.50;99.90
3275;DHT22;1649;53.672;10.064;2023-06-14T05:29:11;15.50;99.90
3275;DHT22;1649;53.672;10.064;2023-06-14T05:31:37;15.40;99.90
3275;DHT22;1649;53.672;10.064;2023-06-14T05:34:03;15.50;99.90
3275;DHT22;1649;53.672;10.064;2023-06-14T05:36:29;15.60;99.90
3275;DHT22;1649;53.672;10.064;2023-06-14T05:38:54;15.70;99.90
3275;DHT22;1649;53.672;10.064;2023-06-14T05:41:24;15.70;99.90
3275;DHT22;1649;53.672;10.064;2023-06-14T05:43:50;15.80;99.90
3275;DHT22;1649;53.672;10.064;2023-06-14T05:46:15;15.90;99.90
3275;DHT22;1649;53.672;10.064;2023-06-14T05:48:41;16.00;99.90
3275;DHT22;1649;53.672;10.064;2023-06-14T05:51:06;16.10;99.90
3275;DHT22;1649;53.672;10.064;2023-06-14T05:53:34;16.10;99.90
3275;DHT22;1649;53.672;10.064;2023-06-14T05:55:59;16.20;99.90
3275;DHT22;1649;53.672;10.064;2023-06-14T05:58:25;16.20;99.90
3275;DHT22;1649;53.672;10.064;2023-06-14T06:00:51;16.30;99.90
3275;DHT22;1649;53.672;10.064;2023-06-14T06:03:18;16.30;99.90
3275;DHT22;1649;53.672;10.064;2023-06-14T06:05:44;16.30;99.90
3275;DHT22;1649;53.672;10.064;2023-06-14T06:08:10;16.40;99.90
3275;DHT22;1649;53.672;10.064;2023-06-14T06:10:35;16.40;99.90
3275;DHT22;1649;53.672;10.064;2023-06-14T06:13:01;16.50;99.90
3275;DHT22;1649;53.672;10.064;2023-06-14T06:15:26;16.60;99.90
3275;DHT22;1649;53.672;10.064;2023-06-14T06:17:52;16.60;99.90
3275;DHT22;1649;53.672;10.064;2023-06-14T06:20:17;16.60;99.90
3275;DHT22;1649;53.672;10.064;2023-06-14T06:22:43;16.80;99.90
3275;DHT22;1649;53.672;10.064;2023-06-14T06:25:09;16.90;99.90
3275;DHT22;1649;53.672;10.064;2023-06-14T06:27:35;17.00;99.90
3275;DHT22;1649;53.672;10.064;2023-06-14T06:30:03;17.10;99.90
3275;DHT22;1649;53.672;10.064;2023-06-14T06:32:29;17.30;99.90
3275;DHT22;1649;53.672;10.064;2023-06-14T06:34:54;17.40;99.90
3275;DHT22;1649;53.672;10.064;2023-06-14T06:37:20;17.60;99.90
3275;DHT22;1649;53.672;10.064;2023-06-14T06:39:45;17.50;99.90
3275;DHT22;1649;53.672;10.064;2023-06-14T06:42:12;17.60;99.90
3275;DHT22;1649;53.672;10.064;2023-06-14T06:44:37;17.60;99.90
3275;DHT22;1649;53.672;10.064;2023-06-14T06:47:03;17.70;99.90
3275;DHT22;1649;53.672;10.064;2023-06-14T06:49:28;17.80;99.90
3275;DHT22;1649;53.672;10.064;2023-06-14T06:52:04;17.90;99.90
3275;DHT22;1649;53.672;10.064;2023-06-14T06:54:30;17.90;99.90
3275;DHT22;1649;53.672;10.064;2023-06-14T06:56:56;18.10;99.90
3275;DHT22;1649;53.672;10.064;2023-06-14T06:59:22;18.20;99.90
3275;DHT22;1649;53.672;10.064;2023-06-14T07:01:48;18.60;99.90
3275;DHT22;1649;53.672;10.064;2023-06-14T07:04:13;19.10;99.90
3275;DHT22;1649;53.672;10.064;2023-06-14T07:06:39;19.30;99.90
3275;DHT22;1649;53.672;10.064;2023-06-14T07:09:04;19.30;99.90
3275;DHT22;1649;53.672;10.064;2023-06-14T07:11:33;19.30;99.90
3275;DHT22;1649;53.672;10.064;2023-06-14T07:13:59;19.40;99.90
3275;DHT22;1649;53.672;10.064;2023-06-14T07:16:25;19.40;99.90
3275;DHT22;1649;53.672;10.064;2023-06-14T07:18:51;19.60;99.90
3275;DHT22;1649;53.672;10.064;2023-06-14T07:21:16;19.80;99.90
3275;DHT22;1649;53.672;10.064;2023-06-14T07:23:42;20.20;99.90
3275;DHT22;1649;53.672;10.064;2023-06-14T07:26:07;20.70;99.90
3275;DHT22;1649;53.672;10.064;2023-06-14T07:28:33;21.10;99.90
3275;DHT22;1649;53.672;10.064;2023-06-14T07:30:58;22.10;99.90
3275;DHT22;1649;53.672;10.064;2023-06-14T07:33:24;23.30;94.80
3275;DHT22;1649;53.672;10.064;2023-06-14T07:35:49;24.30;91.40
3275;DHT22;1649;53.672;10.064;2023-06-14T07:38:15;24.90;88.90
3275;DHT22;1649;53.672;10.064;2023-06-14T07:40:41;25.40;89.30
3275;DHT22;1649;53.672;10.064;2023-06-14T07:43:06;25.60;85.40
3275;DHT22;1649;53.672;10.064;2023-06-14T07:45:32;26.10;86.60
3275;DHT22;1649;53.672;10.064;2023-06-14T07:47:57;26.90;85.40
3275;DHT22;1649;53.672;10.064;2023-06-14T07:50:23;27.30;79.20
3275;DHT22;1649;53.672;10.064;2023-06-14T07:52:48;27.50;77.40
3275;DHT22;1649;53.672;10.064;2023-06-14T07:55:14;27.20;75.20
3275;DHT22;1649;53.672;10.064;2023-06-14T07:57:40;27.40;77.30
3275;DHT22;1649;53.672;10.064;2023-06-14T08:00:06;27.80;78.70
3275;DHT22;1649;53.672;10.064;2023-06-14T08:02:32;28.40;76.60
3275;DHT22;1649;53.672;10.064;2023-06-14T08:04:58;28.50;74.70
3275;DHT22;1649;53.672;10.064;2023-06-14T08:07:23;28.90;72.60
3275;DHT22;1649;53.672;10.064;2023-06-14T08:09:49;28.70;70.20
3275;DHT22;1649;53.672;10.064;2023-06-14T08:12:15;28.90;73.60
3275;DHT22;1649;53.672;10.064;2023-06-14T08:14:42;29.20;70.20
3275;DHT22;1649;53.672;10.064;2023-06-14T08:17:08;29.20;69.70
3275;DHT22;1649;53.672;10.064;2023-06-14T08:19:33;29.30;71.30
3275;DHT22;1649;53.672;10.064;2023-06-14T08:21:59;29.80;69.60
3275;DHT22;1649;53.672;10.064;2023-06-14T08:24:25;30.00;67.80
3275;DHT22;1649;53.672;10.064;2023-06-14T08:26:53;30.00;64.40
3275;DHT22;1649;53.672;10.064;2023-06-14T08:29:18;30.10;70.00
3275;DHT22;1649;53.672;10.064;2023-06-14T08:31:44;30.10;67.50
3275;DHT22;1649;53.672;10.064;2023-06-14T08:34:09;30.00;64.70
3275;DHT22;1649;53.672;10.064;2023-06-14T08:36:35;29.40;63.50
3275;DHT22;1649;53.672;10.064;2023-06-14T08:39:01;29.30;65.90
3275;DHT22;1649;53.672;10.064;2023-06-14T08:41:28;29.10;63.90
3275;DHT22;1649;53.672;10.064;2023-06-14T08:43:56;29.00;63.50
3275;DHT22;1649;53.672;10.064;2023-06-14T08:46:22;29.40;64.20
3275;DHT22;1649;53.672;10.064;2023-06-14T08:48:51;28.80;63.30
3275;DHT22;1649;53.672;10.064;2023-06-14T08:51:23;28.90;65.50
3275;DHT22;1649;53.672;10.064;2023-06-14T08:53:55;28.70;65.20
3275;DHT22;1649;53.672;10.064;2023-06-14T08:56:27;29.30;63.40
3275;DHT22;1649;53.672;10.064;2023-06-14T08:58:53;29.20;66.00
3275;DHT22;1649;53.672;10.064;2023-06-14T09:01:20;29.60;63.90
3275;DHT22;1649;53.672;10.064;2023-06-14T09:03:48;29.50;62.60
3275;DHT22;1649;53.672;10.064;2023-06-14T09:06:14;29.60;61.90
3275;DHT22;1649;53.672;10.064;2023-06-14T09:08:42;29.30;62.00
3275;DHT22;1649;53.672;10.064;2023-06-14T09:11:13;29.10;64.00
3275;DHT22;1649;53.672;10.064;2023-06-14T09:13:40;29.20;62.20
3275;DHT22;1649;53.672;10.064;2023-06-14T09:16:07;29.10;61.60
3275;DHT22;1649;53.672;10.064;2023-06-14T09:18:44;29.30;63.00
3275;DHT22;1649;53.672;10.064;2023-06-14T09:21:13;29.60;61.10
3275;DHT22;1649;53.672;10.064;2023-06-14T09:23:40;29.60;61.70
3275;DHT22;1649;53.672;10.064;2023-06-14T09:26:15;29.70;61.70
3275;DHT22;1649;53.672;10.064;2023-06-14T09:28:47;29.70;60.50
3275;DHT22;1649;53.672;10.064;2023-06-14T09:31:18;29.50;58.90
3275;DHT22;1649;53.672;10.064;2023-06-14T09:33:44;29.30;60.00
3275;DHT22;1649;53.672;10.064;2023-06-14T09:36:21;29.10;60.50
3275;DHT22;1649;53.672;10.064;2023-06-14T09:38:58;28.80;60.70
3275;DHT22;1649;53.672;10.064;2023-06-14T09:41:42;28.60;61.40
3275;DHT22;1649;53.672;10.064;2023-06-14T09:44:10;29.00;61.80
3275;DHT22;1649;53.672;10.064;2023-06-14T09:46:36;28.90;60.30
3275;DHT22;1649;53.672;10.064;2023-06-14T09:49:03;28.70;63.50
3275;DHT22;1649;53.672;10.064;2023-06-14T09:51:29;28.90;63.50
3275;DHT22;1649;53.672;10.064;2023-06-14T09:54:02;29.20;63.20
3275;DHT22;1649;53.672;10.064;2023-06-14T09:56:31;28.90;61.40
3275;DHT22;1649;53.672;10.064;2023-06-14T09:58:59;28.90;60.10
3275;DHT22;1649;53.672;10.064;2023-06-14T10:01:26;28.70;60.10
3275;DHT22;1649;53.672;10.064;2023-06-14T10:04:13;28.40;61.00
3275;DHT22;1649;53.672;10.064;2023-06-14T10:06:43;28.70;60.50
3275;DHT22;1649;53.672;10.064;2023-06-14T10:09:11;28.80;60.40
3275;DHT22;1649;53.672;10.064;2023-06-14T10:11:37;29.00;60.80
3275;DHT22;1649;53.672;10.064;2023-06-14T10:14:09;28.60;59.30
3275;DHT22;1649;53.672;10.064;2023-06-14T10:16:42;27.90;59.40
3275;DHT22;1649;53.672;10.064;2023-06-14T10:19:17;27.60;61.40
3275;DHT22;1649;53.672;10.064;2023-06-14T10:21:56;28.00;63.70
3275;DHT22;1649;53.672;10.064;2023-06-14T10:24:29;27.70;61.50
3275;DHT22;1649;53.672;10.064;2023-06-14T10:26:57;27.50;61.30
3275;DHT22;1649;53.672;10.064;2023-06-14T10:29:24;27.30;62.60
3275;DHT22;1649;53.672;10.064;2023-06-14T10:31:51;27.50;64.30
3275;DHT22;1649;53.672;10.064;2023-06-14T10:34:25;27.80;62.30
3275;DHT22;1649;53.672;10.064;2023-06-14T10:37:11;27.20;60.60
3275;DHT22;1649;53.672;10.064;2023-06-14T10:39:42;27.40;61.40
3275;DHT22;1649;53.672;10.064;2023-06-14T10:42:08;27.60;62.00
3275;DHT22;1649;53.672;10.064;2023-06-14T10:47:07;27.20;61.90
3275;DHT22;1649;53.672;10.064;2023-06-14T10:49:43;26.40;61.50
3275;DHT22;1649;53.672;10.064;2023-06-14T10:52:13;25.80;63.10
3275;DHT22;1649;53.672;10.064;2023-06-14T10:55:10;25.40;64.90
3275;DHT22;1649;53.672;10.064;2023-06-14T10:57:42;26.10;66.80
3275;DHT22;1649;53.672;10.064;2023-06-14T11:00:10;26.70;64.70
3275;DHT22;1649;53.672;10.064;2023-06-14T11:05:24;27.70;63.70
3275;DHT22;1649;53.672;10.064;2023-06-14T11:10:44;27.80;64.80
3275;DHT22;1649;53.672;10.064;2023-06-14T11:13:10;27.30;62.80
3275;DHT22;1649;53.672;10.064;2023-06-14T11:15:37;27.30;66.40
3275;DHT22;1649;53.672;10.064;2023-06-14T11:18:07;27.60;64.20
3275;DHT22;1649;53.672;10.064;2023-06-14T11:20:36;28.40;66.40
3275;DHT22;1649;53.672;10.064;2023-06-14T11:23:03;28.70;63.80
3275;DHT22;1649;53.672;10.064;2023-06-14T11:25:29;28.80;61.90
3275;DHT22;1649;53.672;10.064;2023-06-14T11:27:55;28.00;60.00
3275;DHT22;1649;53.672;10.064;2023-06-14T11:30:22;27.90;60.70
3275;DHT22;1649;53.672;10.064;2023-06-14T11:32:48;27.90;62.50
3275;DHT22;1649;53.672;10.064;2023-06-14T11:35:15;28.00;61.60
3275;DHT22;1649;53.672;10.064;2023-06-14T11:37:41;28.30;61.90
3275;DHT22;1649;53.672;10.064;2023-06-14T11:40:08;28.20;60.60
3275;DHT22;1649;53.672;10.064;2023-06-14T11:42:35;28.30;61.10
3275;DHT22;1649;53.672;10.064;2023-06-14T11:45:02;28.30;59.60
3275;DHT22;1649;53.672;10.064;2023-06-14T11:47:35;28.20;60.00
3275;DHT22;1649;53.672;10.064;2023-06-14T11:50:05;27.60;61.20
3275;DHT22;1649;53.672;10.064;2023-06-14T11:52:31;27.60;61.30
3275;DHT22;1649;53.672;10.064;2023-06-14T11:54:57;27.60;60.80
3275;DHT22;1649;53.672;10.064;2023-06-14T11:57:24;27.70;61.70
3275;DHT22;1649;53.672;10.064;2023-06-14T11:59:50;27.90;62.90
3275;DHT22;1649;53.672;10.064;2023-06-14T12:02:16;28.20;62.10
3275;DHT22;1649;53.672;10.064;2023-06-14T12:04:43;27.60;61.30
3275;DHT22;1649;53.672;10.064;2023-06-14T12:07:09;27.50;62.90
3275;DHT22;1649;53.672;10.064;2023-06-14T12:09:37;27.30;61.70
3275;DHT22;1649;53.672;10.064;2023-06-14T12:12:03;26.80;61.30
3275;DHT22;1649;53.672;10.064;2023-06-14T12:14:32;26.30;62.00
3275;DHT22;1649;53.672;10.064;2023-06-14T12:17:05;25.90;64.50
3275;DHT22;1649;53.672;10.064;2023-06-14T12:19:40;26.10;63.80
3275;DHT22;1649;53.672;10.064;2023-06-14T12:22:07;26.20;65.30
3275;DHT22;1649;53.672;10.064;2023-06-14T12:24:34;26.60;64.20
3275;DHT22;1649;53.672;10.064;2023-06-14T12:26:59;26.90;63.40
3275;DHT22;1649;53.672;10.064;2023-06-14T12:29:25;27.00;63.00
3275;DHT22;1649;53.672;10.064;2023-06-14T12:31:51;26.80;62.80
3275;DHT22;1649;53.672;10.064;2023-06-14T12:34:19;26.40;63.10
3275;DHT22;1649;53.672;10.064;2023-06-14T12:36:45;26.10;63.70
3275;DHT22;1649;53.672;10.064;2023-06-14T12:39:11;25.70;64.70
3275;DHT22;1649;53.672;10.064;2023-06-14T12:41:37;25.60;66.00
3275;DHT22;1649;53.672;10.064;2023-06-14T12:44:03;25.20;66.10
3275;DHT22;1649;53.672;10.064;2023-06-14T12:46:30;25.10;65.80
3275;DHT22;1649;53.672;10.064;2023-06-14T12:48:56;25.30;68.00
3275;DHT22;1649;53.672;10.064;2023-06-14T12:51:22;25.40;66.80
3275;DHT22;1649;53.672;10.064;2023-06-14T12:53:49;25.40;66.80
3275;DHT22;1649;53.672;10.064;2023-06-14T12:56:14;25.80;66.50
3275;DHT22;1649;53.672;10.064;2023-06-14T12:58:41;26.20;65.70
3275;DHT22;1649;53.672;10.064;2023-06-14T13:01:07;26.10;64.00
3275;DHT22;1649;53.672;10.064;2023-06-14T13:03:32;25.80;63.00
3275;DHT22;1649;53.672;10.064;2023-06-14T13:06:01;25.80;63.90
3275;DHT22;1649;53.672;10.064;2023-06-14T13:08:27;26.00;63.90
3275;DHT22;1649;53.672;10.064;2023-06-14T13:10:53;26.20;65.90
3275;DHT22;1649;53.672;10.064;2023-06-14T13:13:19;26.70;65.80
3275;DHT22;1649;53.672;10.064;2023-06-14T13:15:44;26.60;63.90
3275;DHT22;1649;53.672;10.064;2023-06-14T13:18:11;26.50;64.70
3275;DHT22;1649;53.672;10.064;2023-06-14T13:20:38;26.30;62.60
3275;DHT22;1649;53.672;10.064;2023-06-14T13:23:04;26.10;62.80
3275;DHT22;1649;53.672;10.064;2023-06-14T13:25:38;26.30;62.40
3275;DHT22;1649;53.672;10.064;2023-06-14T13:28:04;26.40;63.30
3275;DHT22;1649;53.672;10.064;2023-06-14T13:30:30;26.40;61.80
3275;DHT22;1649;53.672;10.064;2023-06-14T13:32:56;26.50;61.90
3275;DHT22;1649;53.672;10.064;2023-06-14T13:35:22;26.70;63.30
3275;DHT22;1649;53.672;10.064;2023-06-14T13:37:48;26.70;60.70
3275;DHT22;1649;53.672;10.064;2023-06-14T13:40:14;26.50;60.20
3275;DHT22;1649;53.672;10.064;2023-06-14T13:42:39;26.10;61.40
3275;DHT22;1649;53.672;10.064;2023-06-14T13:45:06;26.10;61.40
3275;DHT22;1649;53.672;10.064;2023-06-14T13:47:32;26.00;61.20
3275;DHT22;1649;53.672;10.064;2023-06-14T13:49:58;26.30;62.10
3275;DHT22;1649;53.672;10.064;2023-06-14T13:52:24;26.50;60.40
3275;DHT22;1649;53.672;10.064;2023-06-14T13:54:49;26.70;60.40
3275;DHT22;1649;53.672;10.064;2023-06-14T13:57:15;26.60;60.30
3275;DHT22;1649;53.672;10.064;2023-06-14T13:59:41;26.40;60.40
3275;DHT22;1649;53.672;10.064;2023-06-14T14:02:07;26.00;60.40
3275;DHT22;1649;53.672;10.064;2023-06-14T14:04:33;25.80;60.80
3275;DHT22;1649;53.672;10.064;2023-06-14T14:07:00;25.70;60.80
3275;DHT22;1649;53.672;10.064;2023-06-14T14:09:26;26.00;60.80
3275;DHT22;1649;53.672;10.064;2023-06-14T14:11:52;26.10;61.10
3275;DHT22;1649;53.672;10.064;2023-06-14T14:14:17;26.20;60.00
3275;DHT22;1649;53.672;10.064;2023-06-14T14:16:43;26.10;60.40
3275;DHT22;1649;53.672;10.064;2023-06-14T14:19:08;25.80;60.40
3275;DHT22;1649;53.672;10.064;2023-06-14T14:21:34;25.50;59.30
3275;DHT22;1649;53.672;10.064;2023-06-14T14:24:00;25.20;60.00
3275;DHT22;1649;53.672;10.064;2023-06-14T14:26:26;25.10;60.40
3275;DHT22;1649;53.672;10.064;2023-06-14T14:28:52;25.40;60.40
3275;DHT22;1649;53.672;10.064;2023-06-14T14:31:17;25.50;59.50
3275;DHT22;1649;53.672;10.064;2023-06-14T14:33:44;25.70;60.40
3275;DHT22;1649;53.672;10.064;2023-06-14T14:36:10;25.60;59.20
3275;DHT22;1649;53.672;10.064;2023-06-14T14:38:35;25.70;60.00
3275;DHT22;1649;53.672;10.064;2023-06-14T14:41:01;25.80;61.10
3275;DHT22;1649;53.672;10.064;2023-06-14T14:43:26;25.90;60.00
3275;DHT22;1649;53.672;10.064;2023-06-14T14:45:52;25.90;58.70
3275;DHT22;1649;53.672;10.064;2023-06-14T14:48:18;25.90;59.30
3275;DHT22;1649;53.672;10.064;2023-06-14T14:50:43;26.00;58.60
3275;DHT22;1649;53.672;10.064;2023-06-14T14:53:09;25.90;58.70
3275;DHT22;1649;53.672;10.064;2023-06-14T14:55:34;25.90;58.50
3275;DHT22;1649;53.672;10.064;2023-06-14T14:58:02;25.80;59.80
3275;DHT22;1649;53.672;10.064;2023-06-14T15:00:28;25.80;59.70
3275;DHT22;1649;53.672;10.064;2023-06-14T15:02:54;25.70;58.20
3275;DHT22;1649;53.672;10.064;2023-06-14T15:05:19;25.50;59.30
3275;DHT22;1649;53.672;10.064;2023-06-14T15:07:45;25.50;59.50
3275;DHT22;1649;53.672;10.064;2023-06-14T15:10:11;25.50;58.10
3275;DHT22;1649;53.672;10.064;2023-06-14T15:12:37;25.40;59.00
3275;DHT22;1649;53.672;10.064;2023-06-14T15:15:03;25.50;59.10
3275;DHT22;1649;53.672;10.064;2023-06-14T15:17:29;25.50;58.20
3275;DHT22;1649;53.672;10.064;2023-06-14T15:19:55;25.20;58.00
3275;DHT22;1649;53.672;10.064;2023-06-14T15:22:20;25.30;58.00
3275;DHT22;1649;53.672;10.064;2023-06-14T15:24:46;25.20;58.60
3275;DHT22;1649;53.672;10.064;2023-06-14T15:27:12;25.20;59.10
3275;DHT22;1649;53.672;10.064;2023-06-14T15:29:47;25.30;58.90
3275;DHT22;1649;53.672;10.064;2023-06-14T15:32:12;25.40;58.60
3275;DHT22;1649;53.672;10.064;2023-06-14T15:34:38;25.50;58.40
3275;DHT22;1649;53.672;10.064;2023-06-14T15:37:05;25.50;58.90
3275;DHT22;1649;53.672;10.064;2023-06-14T15:39:31;25.30;58.10
3275;DHT22;1649;53.672;10.064;2023-06-14T15:41:57;25.30;59.00
3275;DHT22;1649;53.672;10.064;2023-06-14T15:44:23;25.10;58.90
3275;DHT22;1649;53.672;10.064;2023-06-14T15:46:48;25.00;58.10
3275;DHT22;1649;53.672;10.064;2023-06-14T15:49:14;24.90;58.80
3275;DHT22;1649;53.672;10.064;2023-06-14T15:51:40;24.90;59.30